»·PEaware :: N800DW KEUG-KSEA

N800DW :: KEUG-KSEA

FLIGHT INFORMATION

Flight Status: Arrived
Operator: Privately registered:
United States
More flights under this callsign
Pilot: Scott L. (17677)
Aircraft: Unknown
(SF50)
More flights by this aircraft type
Origin: KEUG Mahlon Sweet
United States
Destination: KSEA Seattle-Tacoma Intl
United States
More flights between these airports :: More routes between these airports
Route: EUG1 PORTL BTG KRIEG HAWKZ7
File this flight plan on PilotEdge
Remarks:
Altitude:
(Current/Filed)
20,000ft
Speed:
(Current/Filed)
300kts
Departed: 09-Nov-18 12:51 PM
Arrived: 09-Nov-18 01:50 PM
Distance/Time
Traveled:
202nm/0:59
Distance/Time
To Go:
Arrived

Flight Plot

Page will automatically refresh every two minutes.

Flight plan parsing failed; only flown route is shown


Map Options




Map Legend


Flown Route
Filed Route
Departure Airport
Arrival Airport
Navaid (VOR, NDB)
Fix

Horizontal Profiles

Position Reports

Time Latitude Longitude Heading Altitude Ground
Speed
09-Nov-18 12:42 44.114995 -123.215766 2 364ft 0kts
09-Nov-18 12:43 44.114995 -123.215766 2 364ft 0kts
09-Nov-18 12:44 44.114995 -123.215766 2 364ft 0kts
09-Nov-18 12:45 44.114995 -123.215766 2 364ft 0kts
09-Nov-18 12:46 44.114995 -123.215766 2 364ft 0kts
09-Nov-18 12:47 44.115427 -123.215985 299 364ft 6kts
09-Nov-18 12:48 44.118789 -123.216967 357 364ft 22kts
09-Nov-18 12:49 44.125660 -123.217073 357 364ft 24kts
09-Nov-18 12:50 44.133361 -123.217217 359 364ft 26kts
09-Nov-18 12:51 44.135301 -123.218029 270 364ft 0kts
09-Nov-18 12:52 44.135301 -123.218029 270 364ft 0kts
09-Nov-18 12:53 44.135310 -123.218498 272 364ft 9kts
09-Nov-18 12:54 44.113032 -123.218094 176 1466ft 139kts
09-Nov-18 12:55 44.073364 -123.214221 176 4358ft 157kts
09-Nov-18 12:56 44.020194 -123.208838 176 6414ft 222kts
09-Nov-18 12:57 43.985709 -123.155738 56 8369ft 243kts
09-Nov-18 12:58 44.043779 -123.109465 22 10381ft 245kts
09-Nov-18 12:59 44.104740 -123.065048 25 12276ft 248kts
09-Nov-18 13:00 44.165548 -123.020698 24 14167ft 246kts
09-Nov-18 13:01 44.223629 -122.978161 22 15990ft 241kts
09-Nov-18 13:02 44.281837 -122.934674 22 17873ft 234kts
09-Nov-18 13:03 44.338084 -122.893000 21 19748ft 225kts
09-Nov-18 13:04 44.396593 -122.849990 22 20406ft 264kts
09-Nov-18 13:05 44.466203 -122.798279 22 20399ft 298kts
09-Nov-18 13:06 44.541338 -122.742312 23 20386ft 310kts
09-Nov-18 13:07 44.621690 -122.706958 0 20377ft 305kts
09-Nov-18 13:08 44.706593 -122.698294 358 20374ft 305kts
09-Nov-18 13:09 44.791577 -122.689590 359 20375ft 306kts
09-Nov-18 13:10 44.876799 -122.680843 359 20381ft 306kts
09-Nov-18 13:11 44.961944 -122.672242 359 20389ft 306kts
09-Nov-18 13:12 45.046886 -122.663511 358 20392ft 306kts
09-Nov-18 13:13 45.132234 -122.654823 357 20397ft 306kts
09-Nov-18 13:14 45.217332 -122.646255 357 20396ft 306kts
09-Nov-18 13:15 45.302570 -122.637532 357 20395ft 307kts
09-Nov-18 13:16 45.388277 -122.628735 357 20384ft 307kts
09-Nov-18 13:17 45.474196 -122.619887 357 20376ft 307kts
09-Nov-18 13:18 45.559626 -122.611066 357 20371ft 307kts
09-Nov-18 13:19 45.645377 -122.602184 357 20369ft 307kts
09-Nov-18 13:20 45.730760 -122.593310 357 20369ft 306kts
09-Nov-18 13:21 45.813732 -122.606574 345 20371ft 299kts
09-Nov-18 13:22 45.896448 -122.625208 345 20374ft 299kts
09-Nov-18 13:23 45.978615 -122.643898 345 20378ft 299kts
09-Nov-18 13:24 46.060978 -122.662691 345 20382ft 299kts
09-Nov-18 13:25 46.142840 -122.681450 345 20119ft 308kts
09-Nov-18 13:26 46.229790 -122.701494 346 17086ft 323kts
09-Nov-18 13:27 46.313846 -122.720623 348 15421ft 294kts
09-Nov-18 13:28 46.393566 -122.724807 353 14307ft 279kts
09-Nov-18 13:29 46.470717 -122.727626 353 13210ft 275kts
09-Nov-18 13:30 46.547010 -122.730407 353 13040ft 283kts
09-Nov-18 13:31 46.628156 -122.733370 354 13029ft 296kts
09-Nov-18 13:32 46.711037 -122.736312 354 13028ft 298kts
09-Nov-18 13:33 46.793290 -122.722662 25 13053ft 312kts
09-Nov-18 13:34 46.864067 -122.646004 33 13013ft 316kts
09-Nov-18 13:35 46.934289 -122.567142 22 12983ft 313kts
09-Nov-18 13:36 47.017343 -122.527309 10 12262ft 318kts
09-Nov-18 13:37 47.090976 -122.498409 0 10593ft 249kts
09-Nov-18 13:38 47.157924 -122.485992 0 10028ft 233kts
09-Nov-18 13:39 47.226596 -122.474616 0 9147ft 250kts
09-Nov-18 13:40 47.291581 -122.464584 1 8025ft 212kts
09-Nov-18 13:41 47.346597 -122.456178 0 8034ft 188kts
09-Nov-18 13:42 47.396817 -122.453442 5 7418ft 186kts
09-Nov-18 13:43 47.450026 -122.444751 5 5533ft 197kts
09-Nov-18 13:44 47.506105 -122.439816 4 4024ft 194kts
09-Nov-18 13:45 47.554751 -122.434665 5 4046ft 177kts
09-Nov-18 13:46 47.608766 -122.428463 5 4038ft 205kts
09-Nov-18 13:47 47.635690 -122.367078 93 3084ft 230kts
09-Nov-18 13:48 47.596876 -122.313605 177 2580ft 213kts
09-Nov-18 13:49 47.551049 -122.317123 181 2138ft 141kts
09-Nov-18 13:50 47.511998 -122.317513 181 1299ft 123kts
09-Nov-18 13:51 47.483610 -122.317715 183 752ft 89kts
09-Nov-18 13:52 47.459977 -122.317853 184 332ft 75kts
09-Nov-18 13:53 47.454085 -122.316762 34 331ft 0kts
09-Nov-18 13:54 47.454566 -122.316160 53 331ft 11kts
09-Nov-18 13:55 47.452604 -122.313722 182 331ft 20kts
09-Nov-18 13:56 47.444014 -122.313553 180 331ft 40kts
09-Nov-18 13:57 47.438100 -122.308068 93 331ft 26kts
09-Nov-18 13:58 47.436432 -122.304482 132 331ft 0kts
09-Nov-18 13:59 47.436432 -122.304482 132 331ft 0kts
09-Nov-18 14:00 47.436432 -122.304482 132 331ft 0kts
09-Nov-18 14:01 47.436432 -122.304482 132 331ft 0kts
09-Nov-18 14:02 47.436432 -122.304482 132 331ft 0kts
09-Nov-18 14:03 47.436432 -122.304482 132 331ft 0kts
09-Nov-18 14:04 47.436432 -122.304482 132 331ft 0kts
09-Nov-18 14:05 47.436432 -122.304482 132 331ft 0kts
09-Nov-18 14:06 47.436432 -122.304482 132 331ft 0kts
09-Nov-18 14:07 47.436432 -122.304482 132 331ft 0kts
09-Nov-18 14:08 47.436432 -122.304482 132 331ft 0kts

Navigation Log

Ident Type
Flight plan parsing failed, navigation log unavailable